Hovedside
METAR-TAF:

METAR-TAF

Lufthavner :

Skellefteå lufthavn

Skellefteå, Sverige

breddegrad: 64-38N, lengdegrad: 021-05E, høyde over havet: 49 m

Gjeldene værobservasjon

Denne rapporten ble laget for 33 minutter siden, klokken 04:20 UTC
Vind 6 kt fra Vest
Temperatur 5°C
Luftfuktighet 93%
Trykk 1012 hPa
Sikt 10 km eller mer
ingen skyer under 1500 m og ingen bygeskyer

METAR: ESNS 160420Z 26006KT CAVOK 05/04 Q1012

Tid: 06:53 (04:53 UTC)

Varsel

Denne rapporten ble laget for 23 minutter siden, klokken 04:30 UTC
Varsel gyldig fra 16. klokken 05 UTC til 16. klokken 12 UTC
Vind 7 kt fra Vest
Sikt 10 km eller mer
ingen skyer under 1500 m og ingen bygeskyer

TAF: ESNS 160430Z 1605/1612 27007KT CAVOK

Værobservasjoner og værvarsel for over 4000 flyplasser (METAR- og TAF-rapporter).

Tilgjengelige stasjoner er representert av de røde og gule prikkene på kartet.

Hold musepekeren over prikken for å se navnet på stasjonen.

Klikk så for å se værobservasjoner og -varsler.

For å forandre kartet kan du klikke på den grønne knappen med svart kryss for å zoome inn, på den grønne knappen med strek for å zoome ut, eller på de grønne pilene for å se tilstøtende kart.


METAR-TAF: